sensor_id;sensor_type;location;lat;lon;timestamp;temperature;humidity
38726;DHT22;24474;48.906;8.808;2023-02-10T00:01:22;-2.70;99.90
38726;DHT22;24474;48.906;8.808;2023-02-10T00:03:48;-2.70;99.90
38726;DHT22;24474;48.906;8.808;2023-02-10T00:06:14;-2.70;99.90
38726;DHT22;24474;48.906;8.808;2023-02-10T00:08:40;-2.70;99.90
38726;DHT22;24474;48.906;8.808;2023-02-10T00:11:09;-2.70;99.90
38726;DHT22;24474;48.906;8.808;2023-02-10T00:13:38;-2.70;99.90
38726;DHT22;24474;48.906;8.808;2023-02-10T00:16:05;-2.80;99.90
38726;DHT22;24474;48.906;8.808;2023-02-10T00:18:31;-2.80;99.90
38726;DHT22;24474;48.906;8.808;2023-02-10T00:21:14;-2.80;99.90
38726;DHT22;24474;48.906;8.808;2023-02-10T00:23:40;-2.80;99.90
38726;DHT22;24474;48.906;8.808;2023-02-10T00:26:08;-2.80;99.90
38726;DHT22;24474;48.906;8.808;2023-02-10T00:28:35;-2.80;99.90
38726;DHT22;24474;48.906;8.808;2023-02-10T00:31:27;-2.80;99.90
38726;DHT22;24474;48.906;8.808;2023-02-10T00:33:53;-2.80;99.90
38726;DHT22;24474;48.906;8.808;2023-02-10T00:36:18;-2.80;99.90
38726;DHT22;24474;48.906;8.808;2023-02-10T00:38:44;-2.80;99.90
38726;DHT22;24474;48.906;8.808;2023-02-10T00:41:15;-2.80;99.90
38726;DHT22;24474;48.906;8.808;2023-02-10T00:43:42;-2.80;99.90
38726;DHT22;24474;48.906;8.808;2023-02-10T00:46:09;-2.80;99.90
38726;DHT22;24474;48.906;8.808;2023-02-10T00:48:35;-2.80;99.90
38726;DHT22;24474;48.906;8.808;2023-02-10T00:51:02;-2.80;99.90
38726;DHT22;24474;48.906;8.808;2023-02-10T00:53:27;-2.60;99.90
38726;DHT22;24474;48.906;8.808;2023-02-10T00:55:53;-2.70;99.90
38726;DHT22;24474;48.906;8.808;2023-02-10T00:58:19;-2.70;99.90
38726;DHT22;24474;48.906;8.808;2023-02-10T01:00:45;-2.70;99.90
38726;DHT22;24474;48.906;8.808;2023-02-10T01:03:11;-2.70;99.90
38726;DHT22;24474;48.906;8.808;2023-02-10T01:05:36;-2.70;99.90
38726;DHT22;24474;48.906;8.808;2023-02-10T01:08:02;-2.60;99.90
38726;DHT22;24474;48.906;8.808;2023-02-10T01:10:28;-2.60;99.90
38726;DHT22;24474;48.906;8.808;2023-02-10T01:12:55;-2.60;99.90
38726;DHT22;24474;48.906;8.808;2023-02-10T01:15:20;-2.50;99.90
38726;DHT22;24474;48.906;8.808;2023-02-10T01:17:46;-2.50;99.90
38726;DHT22;24474;48.906;8.808;2023-02-10T01:20:11;-2.50;99.90
38726;DHT22;24474;48.906;8.808;2023-02-10T01:22:37;-2.50;99.90
38726;DHT22;24474;48.906;8.808;2023-02-10T01:25:03;-2.50;99.90
38726;DHT22;24474;48.906;8.808;2023-02-10T01:27:29;-2.50;99.90
38726;DHT22;24474;48.906;8.808;2023-02-10T01:29:55;-2.60;99.90
38726;DHT22;24474;48.906;8.808;2023-02-10T01:32:20;-2.50;99.90
38726;DHT22;24474;48.906;8.808;2023-02-10T01:34:46;-2.50;99.90
38726;DHT22;24474;48.906;8.808;2023-02-10T01:37:11;-2.50;99.90
38726;DHT22;24474;48.906;8.808;2023-02-10T01:39:37;-2.60;99.90
38726;DHT22;24474;48.906;8.808;2023-02-10T01:42:03;-2.60;99.90
38726;DHT22;24474;48.906;8.808;2023-02-10T01:46:55;-2.60;99.90
38726;DHT22;24474;48.906;8.808;2023-02-10T01:49:24;-2.70;99.90
38726;DHT22;24474;48.906;8.808;2023-02-10T01:51:58;-2.70;99.90
38726;DHT22;24474;48.906;8.808;2023-02-10T01:54:27;-2.70;99.90
38726;DHT22;24474;48.906;8.808;2023-02-10T01:56:55;-2.70;99.90
38726;DHT22;24474;48.906;8.808;2023-02-10T01:59:22;-2.70;99.90
38726;DHT22;24474;48.906;8.808;2023-02-10T02:01:50;-2.70;99.90
38726;DHT22;24474;48.906;8.808;2023-02-10T02:04:16;-2.70;99.90
38726;DHT22;24474;48.906;8.808;2023-02-10T02:06:42;-2.70;99.90
38726;DHT22;24474;48.906;8.808;2023-02-10T02:09:08;-2.80;99.90
38726;DHT22;24474;48.906;8.808;2023-02-10T02:23:17;-2.90;99.90
38726;DHT22;24474;48.906;8.808;2023-02-10T02:36:13;-3.00;99.90
38726;DHT22;24474;48.906;8.808;2023-02-10T02:38:41;-3.00;99.90
38726;DHT22;24474;48.906;8.808;2023-02-10T02:41:07;-3.00;99.90
38726;DHT22;24474;48.906;8.808;2023-02-10T02:43:34;-3.10;99.90
38726;DHT22;24474;48.906;8.808;2023-02-10T02:46:16;-3.10;99.90
38726;DHT22;24474;48.906;8.808;2023-02-10T02:49:02;-3.10;99.90
38726;DHT22;24474;48.906;8.808;2023-02-10T02:52:02;-3.10;99.90
38726;DHT22;24474;48.906;8.808;2023-02-10T02:54:32;-3.10;99.90
38726;DHT22;24474;48.906;8.808;2023-02-10T02:57:22;-3.10;99.90
38726;DHT22;24474;48.906;8.808;2023-02-10T03:00:08;-3.10;99.90
38726;DHT22;24474;48.906;8.808;2023-02-10T03:02:37;-3.20;99.90
38726;DHT22;24474;48.906;8.808;2023-02-10T03:05:18;-3.20;99.90
38726;DHT22;24474;48.906;8.808;2023-02-10T03:07:45;-3.20;99.90
38726;DHT22;24474;48.906;8.808;2023-02-10T03:10:11;-3.20;99.90
38726;DHT22;24474;48.906;8.808;2023-02-10T03:12:36;-3.20;99.90
38726;DHT22;24474;48.906;8.808;2023-02-10T03:15:02;-3.20;99.90
38726;DHT22;24474;48.906;8.808;2023-02-10T03:17:28;-3.20;99.90
38726;DHT22;24474;48.906;8.808;2023-02-10T03:19:53;-3.20;99.90
38726;DHT22;24474;48.906;8.808;2023-02-10T03:22:19;-3.20;99.90
38726;DHT22;24474;48.906;8.808;2023-02-10T03:24:44;-3.20;99.90
38726;DHT22;24474;48.906;8.808;2023-02-10T03:27:10;-3.30;99.90
38726;DHT22;24474;48.906;8.808;2023-02-10T03:29:36;-3.30;99.90
38726;DHT22;24474;48.906;8.808;2023-02-10T03:32:02;-3.30;99.90
38726;DHT22;24474;48.906;8.808;2023-02-10T03:34:28;-3.30;99.90
38726;DHT22;24474;48.906;8.808;2023-02-10T03:36:54;-3.40;99.90
38726;DHT22;24474;48.906;8.808;2023-02-10T03:39:20;-3.40;99.90
38726;DHT22;24474;48.906;8.808;2023-02-10T03:41:46;-3.40;99.90
38726;DHT22;24474;48.906;8.808;2023-02-10T03:44:11;-3.40;99.90
38726;DHT22;24474;48.906;8.808;2023-02-10T03:46:37;-3.40;99.90
38726;DHT22;24474;48.906;8.808;2023-02-10T03:49:05;-3.40;99.90
38726;DHT22;24474;48.906;8.808;2023-02-10T03:51:31;-3.40;99.90
38726;DHT22;24474;48.906;8.808;2023-02-10T03:53:57;-3.40;99.90
38726;DHT22;24474;48.906;8.808;2023-02-10T03:56:22;-3.40;99.90
38726;DHT22;24474;48.906;8.808;2023-02-10T03:58:48;-3.50;99.90
38726;DHT22;24474;48.906;8.808;2023-02-10T04:01:16;-3.50;99.90
38726;DHT22;24474;48.906;8.808;2023-02-10T04:03:42;-3.50;99.90
38726;DHT22;24474;48.906;8.808;2023-02-10T04:06:09;-3.50;99.90
38726;DHT22;24474;48.906;8.808;2023-02-10T04:08:35;-3.50;99.90
38726;DHT22;24474;48.906;8.808;2023-02-10T04:11:00;-3.60;99.90
38726;DHT22;24474;48.906;8.808;2023-02-10T04:13:26;-3.60;99.90
38726;DHT22;24474;48.906;8.808;2023-02-10T04:16:13;-3.60;99.90
38726;DHT22;24474;48.906;8.808;2023-02-10T04:18:39;-3.60;99.90
38726;DHT22;24474;48.906;8.808;2023-02-10T04:21:06;-3.60;99.90
38726;DHT22;24474;48.906;8.808;2023-02-10T04:23:32;-3.60;99.90
38726;DHT22;24474;48.906;8.808;2023-02-10T04:25:58;-3.60;99.90
38726;DHT22;24474;48.906;8.808;2023-02-10T04:28:24;-3.70;99.90
38726;DHT22;24474;48.906;8.808;2023-02-10T04:30:51;-3.70;99.90
38726;DHT22;24474;48.906;8.808;2023-02-10T04:33:17;-3.70;99.90
38726;DHT22;24474;48.906;8.808;2023-02-10T04:35:43;-3.70;99.90
38726;DHT22;24474;48.906;8.808;2023-02-10T04:38:10;-3.70;99.90
38726;DHT22;24474;48.906;8.808;2023-02-10T04:40:36;-3.70;99.90
38726;DHT22;24474;48.906;8.808;2023-02-10T04:43:02;-3.70;99.90
38726;DHT22;24474;48.906;8.808;2023-02-10T04:45:27;-3.70;99.90
38726;DHT22;24474;48.906;8.808;2023-02-10T04:47:53;-3.80;99.90
38726;DHT22;24474;48.906;8.808;2023-02-10T04:50:18;-3.80;99.90
38726;DHT22;24474;48.906;8.808;2023-02-10T04:52:44;-3.80;99.90
38726;DHT22;24474;48.906;8.808;2023-02-10T04:55:10;-3.80;99.90
38726;DHT22;24474;48.906;8.808;2023-02-10T04:57:35;-3.80;99.90
38726;DHT22;24474;48.906;8.808;2023-02-10T05:00:01;-3.80;99.90
38726;DHT22;24474;48.906;8.808;2023-02-10T05:02:27;-3.90;99.90
38726;DHT22;24474;48.906;8.808;2023-02-10T05:04:52;-3.80;99.90
38726;DHT22;24474;48.906;8.808;2023-02-10T05:07:18;-3.80;99.90
38726;DHT22;24474;48.906;8.808;2023-02-10T05:09:44;-3.80;99.90
38726;DHT22;24474;48.906;8.808;2023-02-10T05:12:09;-3.90;99.90
38726;DHT22;24474;48.906;8.808;2023-02-10T05:14:35;-3.90;99.90
38726;DHT22;24474;48.906;8.808;2023-02-10T05:17:00;-3.90;99.90
38726;DHT22;24474;48.906;8.808;2023-02-10T05:19:26;-3.90;99.90
38726;DHT22;24474;48.906;8.808;2023-02-10T05:21:52;-3.90;99.90
38726;DHT22;24474;48.906;8.808;2023-02-10T05:24:17;-3.90;99.90
38726;DHT22;24474;48.906;8.808;2023-02-10T05:26:43;-4.00;99.90
38726;DHT22;24474;48.906;8.808;2023-02-10T05:29:08;-4.00;99.90
38726;DHT22;24474;48.906;8.808;2023-02-10T05:31:34;-4.00;99.90
38726;DHT22;24474;48.906;8.808;2023-02-10T05:34:00;-4.00;99.90
38726;DHT22;24474;48.906;8.808;2023-02-10T05:36:25;-4.00;99.90
38726;DHT22;24474;48.906;8.808;2023-02-10T05:38:51;-4.00;99.90
38726;DHT22;24474;48.906;8.808;2023-02-10T05:41:35;-4.00;99.90
38726;DHT22;24474;48.906;8.808;2023-02-10T05:44:01;-4.10;99.90
38726;DHT22;24474;48.906;8.808;2023-02-10T05:46:26;-4.10;99.90
38726;DHT22;24474;48.906;8.808;2023-02-10T05:48:52;-4.10;99.90
38726;DHT22;24474;48.906;8.808;2023-02-10T05:51:18;-4.10;99.90
38726;DHT22;24474;48.906;8.808;2023-02-10T05:53:43;-4.10;99.90
38726;DHT22;24474;48.906;8.808;2023-02-10T05:56:09;-4.10;99.90
38726;DHT22;24474;48.906;8.808;2023-02-10T05:58:35;-4.10;99.90
38726;DHT22;24474;48.906;8.808;2023-02-10T06:01:00;-4.10;99.90
38726;DHT22;24474;48.906;8.808;2023-02-10T06:03:26;-4.10;99.90
38726;DHT22;24474;48.906;8.808;2023-02-10T06:05:52;-4.10;99.90
38726;DHT22;24474;48.906;8.808;2023-02-10T06:08:17;-4.10;99.90
38726;DHT22;24474;48.906;8.808;2023-02-10T06:10:43;-4.10;99.90
38726;DHT22;24474;48.906;8.808;2023-02-10T06:13:09;-4.10;99.90
38726;DHT22;24474;48.906;8.808;2023-02-10T06:15:35;-4.00;99.90
38726;DHT22;24474;48.906;8.808;2023-02-10T06:18:00;-4.00;99.90
38726;DHT22;24474;48.906;8.808;2023-02-10T06:20:26;-4.10;99.90
38726;DHT22;24474;48.906;8.808;2023-02-10T06:22:51;-4.10;99.90
38726;DHT22;24474;48.906;8.808;2023-02-10T06:25:17;-4.10;99.90
38726;DHT22;24474;48.906;8.808;2023-02-10T06:27:43;-4.10;99.90
38726;DHT22;24474;48.906;8.808;2023-02-10T06:30:10;-4.10;99.90
38726;DHT22;24474;48.906;8.808;2023-02-10T06:32:36;-4.20;99.90
38726;DHT22;24474;48.906;8.808;2023-02-10T06:35:02;-4.20;99.90
38726;DHT22;24474;48.906;8.808;2023-02-10T06:37:29;-4.20;99.90
38726;DHT22;24474;48.906;8.808;2023-02-10T06:39:55;-4.20;99.90
38726;DHT22;24474;48.906;8.808;2023-02-10T06:42:22;-4.20;99.90
38726;DHT22;24474;48.906;8.808;2023-02-10T06:44:53;-4.30;99.90
38726;DHT22;24474;48.906;8.808;2023-02-10T06:47:19;-4.30;99.90
38726;DHT22;24474;48.906;8.808;2023-02-10T06:49:45;-4.30;99.90
38726;DHT22;24474;48.906;8.808;2023-02-10T06:52:10;-4.30;99.90
38726;DHT22;24474;48.906;8.808;2023-02-10T06:54:36;-4.20;99.90
38726;DHT22;24474;48.906;8.808;2023-02-10T06:57:02;-4.20;99.90
38726;DHT22;24474;48.906;8.808;2023-02-10T06:59:27;-4.20;99.90
38726;DHT22;24474;48.906;8.808;2023-02-10T07:01:53;-4.20;99.90
38726;DHT22;24474;48.906;8.808;2023-02-10T07:04:29;-4.20;99.90
38726;DHT22;24474;48.906;8.808;2023-02-10T07:06:55;-4.20;99.90
38726;DHT22;24474;48.906;8.808;2023-02-10T07:09:21;-4.20;99.90
38726;DHT22;24474;48.906;8.808;2023-02-10T07:11:47;-4.20;99.90
38726;DHT22;24474;48.906;8.808;2023-02-10T07:14:13;-4.20;99.90
38726;DHT22;24474;48.906;8.808;2023-02-10T07:16:39;-4.10;99.90
38726;DHT22;24474;48.906;8.808;2023-02-10T07:19:04;-4.10;99.90
38726;DHT22;24474;48.906;8.808;2023-02-10T07:21:30;-4.10;99.90
38726;DHT22;24474;48.906;8.808;2023-02-10T07:23:56;-4.10;99.90
38726;DHT22;24474;48.906;8.808;2023-02-10T07:26:22;-4.10;99.90
38726;DHT22;24474;48.906;8.808;2023-02-10T07:28:48;-4.00;99.90
38726;DHT22;24474;48.906;8.808;2023-02-10T07:31:14;-4.00;99.90
38726;DHT22;24474;48.906;8.808;2023-02-10T07:33:40;-4.00;99.90
38726;DHT22;24474;48.906;8.808;2023-02-10T07:36:06;-3.90;99.90
38726;DHT22;24474;48.906;8.808;2023-02-10T07:38:32;-3.90;99.90
38726;DHT22;24474;48.906;8.808;2023-02-10T07:40:59;-4.00;99.90
38726;DHT22;24474;48.906;8.808;2023-02-10T07:43:25;-3.90;99.90
38726;DHT22;24474;48.906;8.808;2023-02-10T07:45:50;-3.90;99.90
38726;DHT22;24474;48.906;8.808;2023-02-10T07:48:17;-3.90;99.90
38726;DHT22;24474;48.906;8.808;2023-02-10T07:50:43;-3.90;99.90
38726;DHT22;24474;48.906;8.808;2023-02-10T07:53:09;-3.90;99.90
38726;DHT22;24474;48.906;8.808;2023-02-10T07:55:38;-3.90;99.90
38726;DHT22;24474;48.906;8.808;2023-02-10T07:58:09;-3.90;99.90
38726;DHT22;24474;48.906;8.808;2023-02-10T08:00:36;-3.80;99.90
38726;DHT22;24474;48.906;8.808;2023-02-10T08:03:01;-3.80;99.90
38726;DHT22;24474;48.906;8.808;2023-02-10T08:05:28;-3.80;99.90
38726;DHT22;24474;48.906;8.808;2023-02-10T08:07:55;-3.80;99.90
38726;DHT22;24474;48.906;8.808;2023-02-10T08:10:22;-3.70;99.90
38726;DHT22;24474;48.906;8.808;2023-02-10T08:12:49;-3.70;99.90
38726;DHT22;24474;48.906;8.808;2023-02-10T08:15:15;-3.70;99.90
38726;DHT22;24474;48.906;8.808;2023-02-10T08:17:44;-3.70;99.90
38726;DHT22;24474;48.906;8.808;2023-02-10T08:20:11;-3.70;99.90
38726;DHT22;24474;48.906;8.808;2023-02-10T08:22:38;-3.60;99.90
38726;DHT22;24474;48.906;8.808;2023-02-10T08:25:05;-3.60;99.90
38726;DHT22;24474;48.906;8.808;2023-02-10T08:27:32;-3.50;99.90
38726;DHT22;24474;48.906;8.808;2023-02-10T08:29:59;-3.50;99.90
38726;DHT22;24474;48.906;8.808;2023-02-10T08:32:24;-3.50;99.90
38726;DHT22;24474;48.906;8.808;2023-02-10T08:34:51;-3.40;99.90
38726;DHT22;24474;48.906;8.808;2023-02-10T08:37:17;-3.40;99.90
38726;DHT22;24474;48.906;8.808;2023-02-10T08:39:44;-3.40;99.90
38726;DHT22;24474;48.906;8.808;2023-02-10T08:42:10;-3.30;99.90
38726;DHT22;24474;48.906;8.808;2023-02-10T08:44:37;-3.30;99.90
38726;DHT22;24474;48.906;8.808;2023-02-10T08:47:04;-3.30;99.90
38726;DHT22;24474;48.906;8.808;2023-02-10T08:49:31;-3.20;99.90
38726;DHT22;24474;48.906;8.808;2023-02-10T08:51:58;-3.20;99.90
38726;DHT22;24474;48.906;8.808;2023-02-10T08:54:27;-3.20;99.90
38726;DHT22;24474;48.906;8.808;2023-02-10T08:56:54;-3.20;99.90
38726;DHT22;24474;48.906;8.808;2023-02-10T08:59:19;-3.10;99.90
38726;DHT22;24474;48.906;8.808;2023-02-10T09:01:45;-3.10;99.90
38726;DHT22;24474;48.906;8.808;2023-02-10T09:04:12;-3.10;99.90
38726;DHT22;24474;48.906;8.808;2023-02-10T09:06:39;-3.00;99.90
38726;DHT22;24474;48.906;8.808;2023-02-10T09:09:08;-3.00;99.90
38726;DHT22;24474;48.906;8.808;2023-02-10T09:11:34;-2.90;99.90
38726;DHT22;24474;48.906;8.808;2023-02-10T09:14:01;-3.00;99.90
38726;DHT22;24474;48.906;8.808;2023-02-10T09:16:27;-2.90;99.90
38726;DHT22;24474;48.906;8.808;2023-02-10T09:18:54;-2.90;99.90
38726;DHT22;24474;48.906;8.808;2023-02-10T09:21:22;-2.80;99.90
38726;DHT22;24474;48.906;8.808;2023-02-10T09:23:51;-2.80;99.90
38726;DHT22;24474;48.906;8.808;2023-02-10T09:26:18;-2.80;99.90
38726;DHT22;24474;48.906;8.808;2023-02-10T09:28:44;-2.80;99.90
38726;DHT22;24474;48.906;8.808;2023-02-10T09:31:13;-2.70;99.90
38726;DHT22;24474;48.906;8.808;2023-02-10T09:33:39;-2.60;99.90
38726;DHT22;24474;48.906;8.808;2023-02-10T09:36:08;-2.60;99.90
38726;DHT22;24474;48.906;8.808;2023-02-10T09:38:36;-2.60;99.90
38726;DHT22;24474;48.906;8.808;2023-02-10T09:53:21;-2.30;99.90
38726;DHT22;24474;48.906;8.808;2023-02-10T09:56:02;-2.20;99.90
38726;DHT22;24474;48.906;8.808;2023-02-10T09:58:50;-2.00;99.90
38726;DHT22;24474;48.906;8.808;2023-02-10T10:01:25;-1.90;99.90
38726;DHT22;24474;48.906;8.808;2023-02-10T10:06:22;-1.80;99.90
38726;DHT22;24474;48.906;8.808;2023-02-10T10:11:48;-1.40;99.90
38726;DHT22;24474;48.906;8.808;2023-02-10T10:14:23;-1.30;99.90
38726;DHT22;24474;48.906;8.808;2023-02-10T10:25:43;-0.60;99.90
38726;DHT22;24474;48.906;8.808;2023-02-10T10:31:30;-0.40;99.90
38726;DHT22;24474;48.906;8.808;2023-02-10T10:36:38;-0.30;99.90
38726;DHT22;24474;48.906;8.808;2023-02-10T10:39:33;-0.20;99.90
38726;DHT22;24474;48.906;8.808;2023-02-10T10:42:05;0.00;99.90
38726;DHT22;24474;48.906;8.808;2023-02-10T10:44:37;0.10;99.90
38726;DHT22;24474;48.906;8.808;2023-02-10T10:49:56;0.10;99.90
38726;DHT22;24474;48.906;8.808;2023-02-10T10:52:30;0.20;99.90
38726;DHT22;24474;48.906;8.808;2023-02-10T10:55:10;0.30;99.90
38726;DHT22;24474;48.906;8.808;2023-02-10T10:57:39;0.30;99.90
38726;DHT22;24474;48.906;8.808;2023-02-10T11:00:24;0.40;99.90
38726;DHT22;24474;48.906;8.808;2023-02-10T11:02:59;0.50;99.90
38726;DHT22;24474;48.906;8.808;2023-02-10T11:05:37;0.50;99.90
38726;DHT22;24474;48.906;8.808;2023-02-10T11:08:07;0.60;99.90
38726;DHT22;24474;48.906;8.808;2023-02-10T11:10:54;0.70;99.90
38726;DHT22;24474;48.906;8.808;2023-02-10T11:13:24;0.80;99.90
38726;DHT22;24474;48.906;8.808;2023-02-10T11:16:05;0.90;99.90
38726;DHT22;24474;48.906;8.808;2023-02-10T11:18:31;0.90;99.90
38726;DHT22;24474;48.906;8.808;2023-02-10T11:21:01;0.90;99.90
38726;DHT22;24474;48.906;8.808;2023-02-10T11:23:28;0.90;99.90
38726;DHT22;24474;48.906;8.808;2023-02-10T11:26:05;1.00;99.90
38726;DHT22;24474;48.906;8.808;2023-02-10T11:28:37;1.00;99.90
38726;DHT22;24474;48.906;8.808;2023-02-10T11:31:50;1.00;99.90
38726;DHT22;24474;48.906;8.808;2023-02-10T11:34:20;1.10;99.90
38726;DHT22;24474;48.906;8.808;2023-02-10T11:36:47;1.20;99.90
38726;DHT22;24474;48.906;8.808;2023-02-10T11:39:30;1.20;99.90
38726;DHT22;24474;48.906;8.808;2023-02-10T11:41:57;1.20;99.90
38726;DHT22;24474;48.906;8.808;2023-02-10T11:44:32;1.30;99.90
38726;DHT22;24474;48.906;8.808;2023-02-10T11:47:04;1.30;99.90
38726;DHT22;24474;48.906;8.808;2023-02-10T11:49:34;1.40;99.90
38726;DHT22;24474;48.906;8.808;2023-02-10T11:52:03;1.40;99.90
38726;DHT22;24474;48.906;8.808;2023-02-10T11:54:29;1.40;99.90
38726;DHT22;24474;48.906;8.808;2023-02-10T12:05:57;1.60;99.90
38726;DHT22;24474;48.906;8.808;2023-02-10T12:11:32;1.80;99.90
38726;DHT22;24474;48.906;8.808;2023-02-10T12:14:15;1.80;99.90
38726;DHT22;24474;48.906;8.808;2023-02-10T12:16:50;1.90;99.90
38726;DHT22;24474;48.906;8.808;2023-02-10T12:41:42;2.30;99.90
38726;DHT22;24474;48.906;8.808;2023-02-10T12:53:08;2.60;99.90
38726;DHT22;24474;48.906;8.808;2023-02-10T12:58:21;2.70;99.90
38726;DHT22;24474;48.906;8.808;2023-02-10T13:00:51;2.80;99.90
38726;DHT22;24474;48.906;8.808;2023-02-10T13:03:30;2.80;99.90
38726;DHT22;24474;48.906;8.808;2023-02-10T13:08:49;3.00;99.90
38726;DHT22;24474;48.906;8.808;2023-02-10T13:11:29;3.00;99.90
38726;DHT22;24474;48.906;8.808;2023-02-10T13:14:05;3.20;99.90
38726;DHT22;24474;48.906;8.808;2023-02-10T13:16:34;3.20;99.90
38726;DHT22;24474;48.906;8.808;2023-02-10T13:25:07;3.30;99.90
38726;DHT22;24474;48.906;8.808;2023-02-10T13:30:41;3.30;99.90
38726;DHT22;24474;48.906;8.808;2023-02-10T13:36:09;3.40;99.90
38726;DHT22;24474;48.906;8.808;2023-02-10T13:38:40;3.40;99.90
38726;DHT22;24474;48.906;8.808;2023-02-10T13:41:05;3.40;99.90
38726;DHT22;24474;48.906;8.808;2023-02-10T13:44:28;3.50;99.90
38726;DHT22;24474;48.906;8.808;2023-02-10T13:49:58;3.50;99.90
38726;DHT22;24474;48.906;8.808;2023-02-10T13:52:28;3.60;99.90
38726;DHT22;24474;48.906;8.808;2023-02-10T13:55:23;3.60;99.90
38726;DHT22;24474;48.906;8.808;2023-02-10T13:57:58;3.60;99.90
38726;DHT22;24474;48.906;8.808;2023-02-10T14:00:27;3.70;99.90
38726;DHT22;24474;48.906;8.808;2023-02-10T14:06:05;3.70;99.90
38726;DHT22;24474;48.906;8.808;2023-02-10T14:08:43;3.70;99.90
38726;DHT22;24474;48.906;8.808;2023-02-10T14:14:03;3.90;99.90
38726;DHT22;24474;48.906;8.808;2023-02-10T14:16:36;3.90;99.90
38726;DHT22;24474;48.906;8.808;2023-02-10T14:19:19;3.90;99.90
38726;DHT22;24474;48.906;8.808;2023-02-10T14:21:47;3.90;99.90
38726;DHT22;24474;48.906;8.808;2023-02-10T14:24:18;4.00;99.90
38726;DHT22;24474;48.906;8.808;2023-02-10T14:26:46;3.90;99.90
38726;DHT22;24474;48.906;8.808;2023-02-10T14:29:15;3.90;99.90
38726;DHT22;24474;48.906;8.808;2023-02-10T14:31:43;3.90;99.90
38726;DHT22;24474;48.906;8.808;2023-02-10T14:34:36;3.90;99.90
38726;DHT22;24474;48.906;8.808;2023-02-10T14:37:19;3.90;99.90
38726;DHT22;24474;48.906;8.808;2023-02-10T14:39:56;4.00;99.90
38726;DHT22;24474;48.906;8.808;2023-02-10T14:42:31;4.00;99.90
38726;DHT22;24474;48.906;8.808;2023-02-10T14:45:00;4.00;99.90
38726;DHT22;24474;48.906;8.808;2023-02-10T14:47:38;4.10;99.90
38726;DHT22;24474;48.906;8.808;2023-02-10T14:50:07;4.10;99.90
38726;DHT22;24474;48.906;8.808;2023-02-10T14:52:36;4.10;99.90
38726;DHT22;24474;48.906;8.808;2023-02-10T14:55:37;4.10;99.90
38726;DHT22;24474;48.906;8.808;2023-02-10T14:58:06;4.10;99.90
38726;DHT22;24474;48.906;8.808;2023-02-10T15:00:36;4.10;99.90
38726;DHT22;24474;48.906;8.808;2023-02-10T15:03:05;4.10;99.90
38726;DHT22;24474;48.906;8.808;2023-02-10T15:05:38;4.00;99.90
38726;DHT22;24474;48.906;8.808;2023-02-10T15:08:07;4.10;99.90
38726;DHT22;24474;48.906;8.808;2023-02-10T15:10:43;4.10;99.90
38726;DHT22;24474;48.906;8.808;2023-02-10T15:13:12;4.10;99.90
38726;DHT22;24474;48.906;8.808;2023-02-10T15:15:41;4.10;99.90
38726;DHT22;24474;48.906;8.808;2023-02-10T15:18:19;4.10;99.90
38726;DHT22;24474;48.906;8.808;2023-02-10T15:20:57;4.10;99.90
38726;DHT22;24474;48.906;8.808;2023-02-10T15:23:24;4.20;99.90
38726;DHT22;24474;48.906;8.808;2023-02-10T15:26:02;4.10;99.90
38726;DHT22;24474;48.906;8.808;2023-02-10T15:28:30;4.10;99.90
38726;DHT22;24474;48.906;8.808;2023-02-10T15:31:27;4.10;99.90
38726;DHT22;24474;48.906;8.808;2023-02-10T15:33:58;4.10;99.90
38726;DHT22;24474;48.906;8.808;2023-02-10T15:36:46;4.00;99.90
38726;DHT22;24474;48.906;8.808;2023-02-10T15:39:23;4.00;99.90
38726;DHT22;24474;48.906;8.808;2023-02-10T15:49:47;4.00;99.90
38726;DHT22;24474;48.906;8.808;2023-02-10T15:52:38;3.90;99.90
38726;DHT22;24474;48.906;8.808;2023-02-10T15:55:14;3.90;99.90
38726;DHT22;24474;48.906;8.808;2023-02-10T15:57:40;3.90;99.90
38726;DHT22;24474;48.906;8.808;2023-02-10T16:00:20;3.90;99.90
38726;DHT22;24474;48.906;8.808;2023-02-10T16:02:46;3.90;99.90
38726;DHT22;24474;48.906;8.808;2023-02-10T16:05:11;3.80;99.90
38726;DHT22;24474;48.906;8.808;2023-02-10T16:07:37;3.80;99.90
38726;DHT22;24474;48.906;8.808;2023-02-10T16:10:03;3.80;99.90
38726;DHT22;24474;48.906;8.808;2023-02-10T16:12:28;3.80;99.90
38726;DHT22;24474;48.906;8.808;2023-02-10T16:14:54;3.70;99.90
38726;DHT22;24474;48.906;8.808;2023-02-10T16:17:24;3.70;99.90
38726;DHT22;24474;48.906;8.808;2023-02-10T16:19:50;3.70;99.90
38726;DHT22;24474;48.906;8.808;2023-02-10T16:22:16;3.60;99.90
38726;DHT22;24474;48.906;8.808;2023-02-10T16:24:41;3.60;99.90
38726;DHT22;24474;48.906;8.808;2023-02-10T16:27:08;3.50;99.90
38726;DHT22;24474;48.906;8.808;2023-02-10T16:29:34;3.50;99.90
38726;DHT22;24474;48.906;8.808;2023-02-10T16:32:00;3.50;99.90
38726;DHT22;24474;48.906;8.808;2023-02-10T16:34:26;3.40;99.90
38726;DHT22;24474;48.906;8.808;2023-02-10T16:36:55;3.40;99.90
38726;DHT22;24474;48.906;8.808;2023-02-10T16:39:22;3.30;99.90
38726;DHT22;24474;48.906;8.808;2023-02-10T16:41:51;3.30;99.90
38726;DHT22;24474;48.906;8.808;2023-02-10T16:44:17;3.30;99.90
38726;DHT22;24474;48.906;8.808;2023-02-10T16:46:44;3.20;99.90
38726;DHT22;24474;48.906;8.808;2023-02-10T16:49:13;3.20;99.90
38726;DHT22;24474;48.906;8.808;2023-02-10T16:51:39;3.10;99.90
38726;DHT22;24474;48.906;8.808;2023-02-10T16:54:05;3.10;99.90
38726;DHT22;24474;48.906;8.808;2023-02-10T16:56:38;3.10;99.90
38726;DHT22;24474;48.906;8.808;2023-02-10T16:59:05;3.00;99.90
38726;DHT22;24474;48.906;8.808;2023-02-10T17:01:31;3.00;99.90
38726;DHT22;24474;48.906;8.808;2023-02-10T17:03:58;2.90;99.90
38726;DHT22;24474;48.906;8.808;2023-02-10T17:06:23;2.90;99.90
38726;DHT22;24474;48.906;8.808;2023-02-10T17:08:50;2.90;99.90
38726;DHT22;24474;48.906;8.808;2023-02-10T17:11:16;2.90;99.90
38726;DHT22;24474;48.906;8.808;2023-02-10T17:13:42;2.80;99.90
38726;DHT22;24474;48.906;8.808;2023-02-10T17:16:32;2.80;99.90
38726;DHT22;24474;48.906;8.808;2023-02-10T17:19:03;2.70;99.90
38726;DHT22;24474;48.906;8.808;2023-02-10T17:21:31;2.70;99.90
38726;DHT22;24474;48.906;8.808;2023-02-10T17:23:59;2.70;99.90
38726;DHT22;24474;48.906;8.808;2023-02-10T17:26:25;2.60;99.90
38726;DHT22;24474;48.906;8.808;2023-02-10T17:28:52;2.60;99.90
38726;DHT22;24474;48.906;8.808;2023-02-10T17:31:20;2.60;99.90
38726;DHT22;24474;48.906;8.808;2023-02-10T17:33:47;2.50;99.90
38726;DHT22;24474;48.906;8.808;2023-02-10T17:36:20;2.50;99.90
38726;DHT22;24474;48.906;8.808;2023-02-10T17:38:46;2.50;99.90
38726;DHT22;24474;48.906;8.808;2023-02-10T17:41:18;2.40;99.90
38726;DHT22;24474;48.906;8.808;2023-02-10T17:43:44;2.40;99.90
38726;DHT22;24474;48.906;8.808;2023-02-10T17:46:10;2.30;99.90
38726;DHT22;24474;48.906;8.808;2023-02-10T17:48:36;2.30;99.90
38726;DHT22;24474;48.906;8.808;2023-02-10T17:51:12;2.30;99.90
38726;DHT22;24474;48.906;8.808;2023-02-10T17:53:38;2.20;99.90
38726;DHT22;24474;48.906;8.808;2023-02-10T17:56:04;2.20;99.90
38726;DHT22;24474;48.906;8.808;2023-02-10T17:58:30;2.10;99.90
38726;DHT22;24474;48.906;8.808;2023-02-10T18:00:56;2.10;99.90
38726;DHT22;24474;48.906;8.808;2023-02-10T18:03:22;2.10;99.90
38726;DHT22;24474;48.906;8.808;2023-02-10T18:05:55;2.00;99.90
38726;DHT22;24474;48.906;8.808;2023-02-10T18:08:22;2.00;99.90